Time;durP1;ratioP1;P1;durP2;ratioP2;P2;SDS_P1;SDS_P2;PMS_P1;PMS_P2;Temp;Humidity;BMP_temperature;BMP_pressure;BME280_temperature;BME280_humidity;BME280_pressure;Samples;Min_cycle;Max_cycle;Signal;HPM_P1;HPM_P2
2022/07/25 00:00:05;;;;;;;7.23;6.53;;;;;;;;;;5002153;28;20477;-75
2022/07/25 00:02:33;;;;;;;8.93;6.43;;;;;;;;;;5012743;28;20457;-77
2022/07/25 00:05:01;;;;;;;7.00;6.30;;;;;;;;;;5013009;28;20554;-77
2022/07/25 00:07:28;;;;;;;8.90;5.90;;;;;;;;;;5012752;28;20461;-77
2022/07/25 00:09:56;;;;;;;7.93;6.40;;;;;;;;;;5013417;28;21007;-78
2022/07/25 00:12:23;;;;;;;6.60;6.00;;;;;;;;;;4996162;28;20530;-80
2022/07/25 00:14:50;;;;;;;7.03;6.30;;;;;;;;;;5015429;28;20446;-78
2022/07/25 00:17:17;;;;;;;7.23;6.53;;;;;;;;;;5013872;28;20467;-76
2022/07/25 00:19:46;;;;;;;8.30;5.93;;;;;;;;;;4999436;28;20427;-76
2022/07/25 00:22:13;;;;;;;6.50;5.90;;;;;;;;;;4989763;28;20472;-80
2022/07/25 00:24:40;;;;;;;6.70;5.80;;;;;;;;;;4992314;28;20475;-79
2022/07/25 00:27:08;;;;;;;8.40;7.60;;;;;;;;;;4993254;28;20974;-79
2022/07/25 00:29:36;;;;;;;7.27;6.57;;;;;;;;;;4992695;28;20454;-78
2022/07/25 00:32:03;;;;;;;7.23;6.23;;;;;;;;;;4993683;28;20988;-78
2022/07/25 00:34:30;;;;;;;6.43;5.83;;;;;;;;;;4993168;28;20908;-79
2022/07/25 00:36:59;;;;;;;6.97;6.27;;;;;;;;;;4995046;28;20502;-79
2022/07/25 00:39:26;;;;;;;7.60;6.50;;;;;;;;;;4995482;28;20535;-78
2022/07/25 00:41:53;;;;;;;7.77;6.83;;;;;;;;;;4990453;28;20475;-78
2022/07/25 00:44:22;;;;;;;6.80;6.13;;;;;;;;;;4988973;28;20788;-78
2022/07/25 00:46:50;;;;;;;7.30;6.63;;;;;;;;;;5011114;28;20461;-78
2022/07/25 00:49:17;;;;;;;7.03;6.07;;;;;;;;;;5012022;28;20450;-78
2022/07/25 00:51:45;;;;;;;6.73;5.90;;;;;;;;;;5012242;28;20975;-78
2022/07/25 00:54:14;;;;;;;6.33;5.83;;;;;;;;;;5012304;28;20451;-78
2022/07/25 00:56:41;;;;;;;7.40;6.70;;;;;;;;;;4994627;28;20951;-78
2022/07/25 00:59:09;;;;;;;7.10;6.40;;;;;;;;;;4996788;28;20557;-78
2022/07/25 01:01:36;;;;;;;7.37;6.50;;;;;;;;;;5014190;28;20486;-78
2022/07/25 01:04:03;;;;;;;8.10;7.30;;;;;;;;;;5003161;28;20437;-78
2022/07/25 01:06:34;;;;;;;6.90;6.30;;;;;;;;;;4997829;28;20462;-77
2022/07/25 01:09:01;;;;;;;9.77;7.23;;;;;;;;;;4991097;28;20543;-76
2022/07/25 01:11:32;;;;;;;7.77;6.53;;;;;;;;;;4992190;28;20444;-78
2022/07/25 01:14:00;;;;;;;7.60;6.90;;;;;;;;;;4992472;28;20443;-77
2022/07/25 01:16:27;;;;;;;7.20;6.50;;;;;;;;;;4991897;28;20551;-78
2022/07/25 01:18:54;;;;;;;7.50;6.90;;;;;;;;;;4992470;28;20440;-77
2022/07/25 01:21:23;;;;;;;7.70;7.00;;;;;;;;;;4993655;28;20492;-79
2022/07/25 01:23:50;;;;;;;8.37;7.57;;;;;;;;;;4994524;28;20542;-77
2022/07/25 01:26:18;;;;;;;8.00;7.20;;;;;;;;;;4990546;28;20960;-78
2022/07/25 01:28:47;;;;;;;6.60;6.00;;;;;;;;;;4996579;28;20436;-78
2022/07/25 01:31:28;;;;;;;7.57;6.87;;;;;;;;;;5005306;28;20496;-79
2022/07/25 01:34:06;;;;;;;7.10;6.50;;;;;;;;;;5011643;28;20947;-79
2022/07/25 01:36:35;;;;;;;8.60;7.03;;;;;;;;;;5011704;28;20513;-78
2022/07/25 01:39:02;;;;;;;7.83;7.03;;;;;;;;;;5011589;28;20471;-77
2022/07/25 01:41:31;;;;;;;7.70;6.90;;;;;;;;;;5011329;28;20573;-78
2022/07/25 01:43:58;;;;;;;8.90;7.10;;;;;;;;;;5013023;28;20454;-78
2022/07/25 01:46:26;;;;;;;8.00;7.20;;;;;;;;;;5013785;28;20493;-79
2022/07/25 01:48:53;;;;;;;8.97;7.50;;;;;;;;;;5005185;28;20441;-79
2022/07/25 01:51:20;;;;;;;16.10;7.10;;;;;;;;;;4997528;28;20804;-78
2022/07/25 01:53:48;;;;;;;7.90;7.20;;;;;;;;;;4993877;28;20547;-78
2022/07/25 01:56:16;;;;;;;8.47;7.33;;;;;;;;;;4991502;28;20463;-78
2022/07/25 01:58:43;;;;;;;7.33;6.63;;;;;;;;;;4991788;28;20662;-78
2022/07/25 02:01:10;;;;;;;8.43;7.10;;;;;;;;;;4991484;28;20877;-79
2022/07/25 02:03:37;;;;;;;7.13;6.53;;;;;;;;;;4992845;28;20435;-79
2022/07/25 02:06:06;;;;;;;8.00;7.20;;;;;;;;;;4992902;28;20491;-79
2022/07/25 02:08:34;;;;;;;7.80;6.97;;;;;;;;;;4993845;28;20526;-79
2022/07/25 02:11:02;;;;;;;8.03;7.10;;;;;;;;;;4995107;28;20448;-79
2022/07/25 02:13:30;;;;;;;7.33;6.63;;;;;;;;;;4997484;28;20439;-80
2022/07/25 02:15:57;;;;;;;7.83;6.80;;;;;;;;;;5002401;28;20457;-78
2022/07/25 02:18:24;;;;;;;7.83;7.03;;;;;;;;;;5011186;28;20453;-79
2022/07/25 02:20:51;;;;;;;8.20;7.10;;;;;;;;;;5011498;28;20544;-78
2022/07/25 02:23:18;;;;;;;8.03;7.23;;;;;;;;;;5010517;28;20962;-78
2022/07/25 02:25:46;;;;;;;6.73;6.13;;;;;;;;;;5011795;28;20439;-78
2022/07/25 02:28:14;;;;;;;8.77;7.60;;;;;;;;;;5011747;28;20447;-78
2022/07/25 02:30:41;;;;;;;8.03;7.23;;;;;;;;;;5013486;28;20447;-78
2022/07/25 02:33:09;;;;;;;8.13;7.03;;;;;;;;;;5011808;28;20769;-78
2022/07/25 02:35:36;;;;;;;8.43;6.53;;;;;;;;;;4997165;28;20611;-78
2022/07/25 02:38:03;;;;;;;7.57;6.87;;;;;;;;;;4996742;28;20797;-78
2022/07/25 02:40:30;;;;;;;8.40;7.00;;;;;;;;;;4994139;28;20542;-79
2022/07/25 02:42:58;;;;;;;8.13;7.33;;;;;;;;;;4994794;28;20499;-78
2022/07/25 02:45:26;;;;;;;7.70;7.00;;;;;;;;;;4994651;28;20470;-79
2022/07/25 02:47:54;;;;;;;8.33;7.50;;;;;;;;;;4995345;28;20867;-78
2022/07/25 02:50:21;;;;;;;7.70;6.50;;;;;;;;;;4995208;28;20468;-78
2022/07/25 02:52:48;;;;;;;7.83;7.13;;;;;;;;;;4997228;28;20539;-78
2022/07/25 02:55:15;;;;;;;8.57;6.73;;;;;;;;;;4997312;28;20502;-78
2022/07/25 02:57:43;;;;;;;8.80;7.40;;;;;;;;;;5000283;28;21035;-78
2022/07/25 03:00:10;;;;;;;9.53;7.00;;;;;;;;;;5000507;28;20471;-77
2022/07/25 03:02:39;;;;;;;8.80;8.00;;;;;;;;;;4994138;28;20491;-77
2022/07/25 03:05:07;;;;;;;8.50;7.80;;;;;;;;;;4994616;28;20474;-77
2022/07/25 03:07:34;;;;;;;7.43;6.70;;;;;;;;;;4994444;28;20474;-77
2022/07/25 03:10:01;;;;;;;8.00;7.30;;;;;;;;;;4994990;28;20458;-78
2022/07/25 03:12:28;;;;;;;9.00;8.20;;;;;;;;;;4998360;28;20880;-77
2022/07/25 03:14:55;;;;;;;7.87;7.17;;;;;;;;;;5016294;28;20462;-78
2022/07/25 03:17:23;;;;;;;8.40;7.60;;;;;;;;;;5016057;28;20543;-77
2022/07/25 03:19:51;;;;;;;8.47;7.57;;;;;;;;;;5004008;28;20439;-78
2022/07/25 03:22:19;;;;;;;8.33;7.20;;;;;;;;;;4999889;28;20562;-77
2022/07/25 03:24:46;;;;;;;8.13;7.33;;;;;;;;;;5011276;28;20466;-78
2022/07/25 03:27:13;;;;;;;8.23;7.47;;;;;;;;;;5013565;28;20467;-78
2022/07/25 03:29:40;;;;;;;9.00;7.50;;;;;;;;;;5014049;28;20807;-78
2022/07/25 03:32:08;;;;;;;9.83;8.03;;;;;;;;;;5013863;28;20959;-78
2022/07/25 03:34:35;;;;;;;7.80;7.10;;;;;;;;;;4996660;28;20439;-78
2022/07/25 03:37:04;;;;;;;8.07;7.37;;;;;;;;;;5015156;28;20569;-78
2022/07/25 03:39:31;;;;;;;7.77;6.97;;;;;;;;;;5016001;28;20856;-78
2022/07/25 03:41:59;;;;;;;8.10;7.30;;;;;;;;;;5006432;28;20595;-78
2022/07/25 03:44:26;;;;;;;8.70;7.90;;;;;;;;;;4999434;28;20959;-78
2022/07/25 03:46:53;;;;;;;8.27;7.47;;;;;;;;;;4995586;28;20452;-79
2022/07/25 03:49:20;;;;;;;11.00;7.60;;;;;;;;;;4994000;28;20539;-78
2022/07/25 03:51:48;;;;;;;8.60;7.80;;;;;;;;;;4993408;28;20440;-78
2022/07/25 03:54:16;;;;;;;8.03;7.30;;;;;;;;;;4993335;28;20451;-77
2022/07/25 03:56:44;;;;;;;8.00;7.20;;;;;;;;;;4994118;28;20460;-78
2022/07/25 03:59:12;;;;;;;8.53;7.73;;;;;;;;;;5010832;28;20547;-79
2022/07/25 04:01:39;;;;;;;7.77;7.07;;;;;;;;;;5015419;28;20585;-78
2022/07/25 04:04:07;;;;;;;7.70;6.93;;;;;;;;;;5009559;28;20546;-78
2022/07/25 04:06:34;;;;;;;10.30;7.30;;;;;;;;;;4999034;28;20482;-79
2022/07/25 04:09:01;;;;;;;8.27;7.13;;;;;;;;;;4996290;28;20444;-78
2022/07/25 04:11:30;;;;;;;9.33;7.17;;;;;;;;;;4993535;28;20448;-79
2022/07/25 04:13:57;;;;;;;7.60;6.90;;;;;;;;;;4993727;28;20436;-78
2022/07/25 04:16:25;;;;;;;8.50;7.10;;;;;;;;;;4975645;28;20570;-78
2022/07/25 04:18:52;;;;;;;7.47;6.83;;;;;;;;;;4994004;28;20462;-78
2022/07/25 04:21:19;;;;;;;7.37;6.67;;;;;;;;;;4994121;28;20467;-79
2022/07/25 04:23:47;;;;;;;8.37;7.60;;;;;;;;;;4978529;28;20554;-79
2022/07/25 04:26:14;;;;;;;8.23;7.33;;;;;;;;;;4995787;28;20460;-79
2022/07/25 04:28:42;;;;;;;13.90;8.43;;;;;;;;;;4999016;28;20449;-81
2022/07/25 04:31:10;;;;;;;8.53;7.73;;;;;;;;;;5001877;28;20921;-79
2022/07/25 04:33:37;;;;;;;8.00;7.20;;;;;;;;;;5012615;28;20447;-78
2022/07/25 04:36:05;;;;;;;7.40;6.80;;;;;;;;;;5012305;28;20554;-79
2022/07/25 04:38:32;;;;;;;8.03;7.33;;;;;;;;;;5012048;28;20453;-78
2022/07/25 04:40:59;;;;;;;9.23;7.20;;;;;;;;;;5012869;28;20868;-80
2022/07/25 04:43:27;;;;;;;8.30;7.50;;;;;;;;;;4995672;28;20479;-81
2022/07/25 04:45:56;;;;;;;9.40;7.40;;;;;;;;;;5014889;28;21154;-80
2022/07/25 04:48:23;;;;;;;7.87;7.17;;;;;;;;;;5013304;28;20450;-80
2022/07/25 04:50:51;;;;;;;7.40;6.70;;;;;;;;;;4998236;28;20925;-79
2022/07/25 04:53:18;;;;;;;7.40;6.70;;;;;;;;;;5000533;28;20795;-80
2022/07/25 04:55:45;;;;;;;7.57;6.77;;;;;;;;;;5011619;28;20534;-79
2022/07/25 04:58:13;;;;;;;7.73;6.87;;;;;;;;;;5012088;28;20443;-81
2022/07/25 05:00:40;;;;;;;7.87;7.10;;;;;;;;;;5011589;28;20469;-79
2022/07/25 05:03:09;;;;;;;7.97;7.23;;;;;;;;;;5012532;28;20501;-80
2022/07/25 05:05:36;;;;;;;7.30;6.60;;;;;;;;;;5012087;28;20831;-80
2022/07/25 05:08:04;;;;;;;9.13;7.37;;;;;;;;;;5014414;28;20538;-80
2022/07/25 05:10:31;;;;;;;7.30;6.70;;;;;;;;;;5014731;28;20526;-79
2022/07/25 05:12:59;;;;;;;7.87;7.03;;;;;;;;;;4998299;28;20871;-79
2022/07/25 05:15:27;;;;;;;8.87;6.97;;;;;;;;;;4997723;28;20533;-80
2022/07/25 05:18:03;;;;;;;7.30;6.60;;;;;;;;;;5011496;28;20537;-80
2022/07/25 05:20:31;;;;;;;7.87;7.13;;;;;;;;;;5012103;28;20545;-79
2022/07/25 05:22:59;;;;;;;7.67;6.97;;;;;;;;;;5011351;28;20491;-80
2022/07/25 05:25:26;;;;;;;7.60;6.90;;;;;;;;;;5012428;28;20443;-80
2022/07/25 05:27:56;;;;;;;8.00;7.30;;;;;;;;;;5011787;28;20573;-79
2022/07/25 05:30:23;;;;;;;7.27;6.57;;;;;;;;;;5013885;28;20938;-80
2022/07/25 05:32:50;;;;;;;9.10;5.83;;;;;;;;;;5014220;28;20860;-80
2022/07/25 05:35:17;;;;;;;7.37;6.67;;;;;;;;;;5000546;28;20432;-79
2022/07/25 05:37:46;;;;;;;7.60;6.80;;;;;;;;;;4997509;28;20814;-78
2022/07/25 05:40:13;;;;;;;7.57;6.97;;;;;;;;;;4991261;28;20467;-78
2022/07/25 05:42:40;;;;;;;7.40;6.70;;;;;;;;;;4974579;28;20484;-80
2022/07/25 05:45:08;;;;;;;8.00;6.87;;;;;;;;;;4991981;28;20447;-77
2022/07/25 05:47:35;;;;;;;7.07;6.37;;;;;;;;;;4991836;28;20495;-77
2022/07/25 05:50:02;;;;;;;8.60;6.47;;;;;;;;;;4991635;28;20494;-77
2022/07/25 05:52:30;;;;;;;7.30;6.57;;;;;;;;;;4994794;28;20461;-77
2022/07/25 05:54:58;;;;;;;8.73;6.30;;;;;;;;;;4994211;28;20534;-77
2022/07/25 05:57:25;;;;;;;8.50;6.93;;;;;;;;;;4988676;28;20472;-76
2022/07/25 05:59:53;;;;;;;9.93;6.90;;;;;;;;;;4991988;28;21774;-77
2022/07/25 06:02:20;;;;;;;6.93;6.33;;;;;;;;;;4991654;28;20486;-77
2022/07/25 06:04:47;;;;;;;8.33;6.90;;;;;;;;;;4991790;28;20435;-77
2022/07/25 06:07:14;;;;;;;7.23;6.63;;;;;;;;;;4991843;28;20551;-77
2022/07/25 06:09:43;;;;;;;7.53;6.07;;;;;;;;;;4991739;28;20470;-77
2022/07/25 06:12:12;;;;;;;6.83;6.23;;;;;;;;;;4992898;28;20551;-78
2022/07/25 06:14:40;;;;;;;6.97;6.27;;;;;;;;;;5015810;28;20435;-79
2022/07/25 06:17:07;;;;;;;7.53;6.60;;;;;;;;;;5017509;28;20896;-80
2022/07/25 06:19:34;;;;;;;7.17;6.57;;;;;;;;;;5005897;28;20498;-80
2022/07/25 06:22:01;;;;;;;6.70;6.20;;;;;;;;;;5000128;28;21217;-81
2022/07/25 06:24:28;;;;;;;10.60;6.70;;;;;;;;;;5002111;28;20447;-78
2022/07/25 06:26:56;;;;;;;6.63;6.03;;;;;;;;;;4995157;28;20491;-77
2022/07/25 06:29:24;;;;;;;8.00;7.20;;;;;;;;;;4995473;28;20983;-77
2022/07/25 06:31:51;;;;;;;7.30;6.60;;;;;;;;;;4994036;28;20471;-76
2022/07/25 06:34:18;;;;;;;7.27;6.57;;;;;;;;;;4995591;28;20449;-78
2022/07/25 06:36:46;;;;;;;7.03;6.33;;;;;;;;;;4997540;28;20473;-82
2022/07/25 06:39:13;;;;;;;7.43;6.83;;;;;;;;;;5003961;28;20554;-79
2022/07/25 06:41:41;;;;;;;7.03;6.40;;;;;;;;;;5006700;28;20467;-77
2022/07/25 06:44:08;;;;;;;7.20;6.60;;;;;;;;;;4999012;28;20506;-77
2022/07/25 06:46:36;;;;;;;6.60;5.93;;;;;;;;;;5001791;28;20479;-77
2022/07/25 06:49:03;;;;;;;6.60;5.80;;;;;;;;;;5007939;28;20462;-78
2022/07/25 06:51:31;;;;;;;6.00;4.97;;;;;;;;;;5011703;28;20545;-79
2022/07/25 06:53:58;;;;;;;8.20;6.60;;;;;;;;;;5014360;28;20441;-78
2022/07/25 06:56:30;;;;;;;7.47;6.07;;;;;;;;;;5014878;28;20462;-81
2022/07/25 06:58:57;;;;;;;6.67;6.00;;;;;;;;;;4997783;28;20494;-79
2022/07/25 07:01:24;;;;;;;7.23;6.07;;;;;;;;;;4997103;28;20455;-79
2022/07/25 07:03:53;;;;;;;6.80;6.20;;;;;;;;;;4998290;28;20522;-79
2022/07/25 07:06:20;;;;;;;6.60;5.90;;;;;;;;;;5000253;28;21769;-79
2022/07/25 07:08:47;;;;;;;7.60;6.33;;;;;;;;;;5006524;28;21050;-79
2022/07/25 07:11:15;;;;;;;7.63;6.30;;;;;;;;;;4994923;28;20897;-80
2022/07/25 07:13:42;;;;;;;7.00;6.30;;;;;;;;;;4995062;28;20452;-79
2022/07/25 07:16:10;;;;;;;8.37;5.97;;;;;;;;;;5001670;28;20463;-78
2022/07/25 07:18:38;;;;;;;6.30;5.80;;;;;;;;;;5012402;28;20459;-78
2022/07/25 07:21:08;;;;;;;6.33;5.83;;;;;;;;;;5020183;28;20538;-79
2022/07/25 07:23:36;;;;;;;6.73;6.10;;;;;;;;;;5019476;28;20494;-78
2022/07/25 07:26:03;;;;;;;6.13;5.60;;;;;;;;;;5013488;28;20459;-78
2022/07/25 07:28:30;;;;;;;8.30;5.90;;;;;;;;;;5001865;28;20454;-79
2022/07/25 07:30:57;;;;;;;6.37;5.77;;;;;;;;;;5007271;28;20453;-78
2022/07/25 07:33:24;;;;;;;6.70;6.00;;;;;;;;;;5012683;28;20447;-78
2022/07/25 07:35:54;;;;;;;7.70;6.30;;;;;;;;;;4992529;28;20542;-78
2022/07/25 07:38:23;;;;;;;7.07;6.10;;;;;;;;;;4993955;28;20824;-79
2022/07/25 07:40:50;;;;;;;6.80;6.20;;;;;;;;;;5010039;28;21197;-78
2022/07/25 07:43:17;;;;;;;6.67;6.07;;;;;;;;;;5014813;28;20489;-79
2022/07/25 07:45:45;;;;;;;6.10;5.60;;;;;;;;;;4996689;28;20975;-79
2022/07/25 07:48:12;;;;;;;7.03;6.33;;;;;;;;;;5008796;28;20464;-78
2022/07/25 07:50:39;;;;;;;7.17;5.83;;;;;;;;;;4998626;28;20455;-77
2022/07/25 07:53:07;;;;;;;6.17;5.67;;;;;;;;;;5000160;28;20929;-77
2022/07/25 07:58:17;;;;;;;7.50;5.87;;;;;;;;;;4977976;28;20576;-79
2022/07/25 08:00:45;;;;;;;6.80;5.53;;;;;;;;;;4972331;28;20531;-77
2022/07/25 08:03:13;;;;;;;5.80;5.20;;;;;;;;;;4973695;28;20833;-80
2022/07/25 08:05:41;;;;;;;7.27;5.53;;;;;;;;;;4974309;28;20548;-78
2022/07/25 08:08:09;;;;;;;6.60;5.90;;;;;;;;;;4976320;28;20531;-78
2022/07/25 08:10:38;;;;;;;6.37;5.73;;;;;;;;;;4976267;28;20942;-78
2022/07/25 08:13:13;;;;;;;6.40;5.67;;;;;;;;;;4978330;28;20429;-78
2022/07/25 08:15:40;;;;;;;6.43;5.30;;;;;;;;;;4970209;28;20934;-80
2022/07/25 08:18:07;;;;;;;6.07;5.47;;;;;;;;;;4973415;28;20468;-79
2022/07/25 08:20:34;;;;;;;7.70;5.70;;;;;;;;;;4973692;28;20539;-81
2022/07/25 08:23:02;;;;;;;7.43;5.93;;;;;;;;;;4973420;28;20484;-79
2022/07/25 08:25:29;;;;;;;6.90;6.30;;;;;;;;;;4973165;28;20444;-78
2022/07/25 08:27:58;;;;;;;6.17;5.67;;;;;;;;;;4973765;28;20465;-78
2022/07/25 08:30:25;;;;;;;6.30;5.70;;;;;;;;;;4976181;28;20793;-80
2022/07/25 08:32:54;;;;;;;6.63;6.03;;;;;;;;;;4975836;28;20825;-78
2022/07/25 08:35:23;;;;;;;7.37;6.00;;;;;;;;;;4971080;28;20550;-78
2022/07/25 08:37:51;;;;;;;6.37;5.67;;;;;;;;;;4977496;28;21030;-79
2022/07/25 08:40:19;;;;;;;7.30;6.00;;;;;;;;;;4973954;28;20447;-79
2022/07/25 08:42:46;;;;;;;8.53;6.17;;;;;;;;;;4972417;28;20664;-79
2022/07/25 08:45:16;;;;;;;6.50;5.97;;;;;;;;;;4973658;28;20444;-80
2022/07/25 08:47:44;;;;;;;6.50;6.00;;;;;;;;;;4972562;28;20561;-79
2022/07/25 08:50:13;;;;;;;6.40;5.80;;;;;;;;;;4973486;28;20451;-83
2022/07/25 08:52:40;;;;;;;6.33;5.73;;;;;;;;;;4975718;28;20465;-80
2022/07/25 08:55:09;;;;;;;7.43;6.73;;;;;;;;;;4974270;28;20445;-79
2022/07/25 08:57:40;;;;;;;6.77;6.07;;;;;;;;;;4978105;28;20496;-77
2022/07/25 09:00:08;;;;;;;6.63;5.97;;;;;;;;;;4990836;28;20466;-81
2022/07/25 09:02:36;;;;;;;8.67;5.90;;;;;;;;;;5008550;28;20446;-81
2022/07/25 09:05:04;;;;;;;7.07;6.47;;;;;;;;;;5012093;28;20443;-79
2022/07/25 09:07:32;;;;;;;6.53;5.50;;;;;;;;;;5011905;28;20466;-79
2022/07/25 09:09:59;;;;;;;6.63;5.97;;;;;;;;;;5012293;28;20446;-80
2022/07/25 09:12:27;;;;;;;6.20;5.70;;;;;;;;;;5012409;28;20646;-77
2022/07/25 09:14:54;;;;;;;7.07;6.33;;;;;;;;;;5013762;28;20454;-78
2022/07/25 09:17:21;;;;;;;7.13;6.03;;;;;;;;;;5014333;28;20879;-78
2022/07/25 09:19:54;;;;;;;7.03;6.33;;;;;;;;;;5004863;28;20435;-77
2022/07/25 09:22:21;;;;;;;8.37;5.63;;;;;;;;;;4980752;28;20471;-76
2022/07/25 09:24:48;;;;;;;7.13;6.00;;;;;;;;;;4994064;28;20491;-78
2022/07/25 09:27:17;;;;;;;9.03;6.47;;;;;;;;;;4992225;28;20495;-80
2022/07/25 09:29:44;;;;;;;6.30;5.80;;;;;;;;;;4992328;28;20530;-77
2022/07/25 09:32:16;;;;;;;6.63;6.03;;;;;;;;;;4992250;28;20542;-81
2022/07/25 09:34:45;;;;;;;6.73;5.30;;;;;;;;;;4992423;28;20506;-80
2022/07/25 09:37:14;;;;;;;6.20;5.70;;;;;;;;;;4994137;28;20482;-78
2022/07/25 09:39:42;;;;;;;6.00;5.50;;;;;;;;;;4977308;28;20448;-77
2022/07/25 09:42:17;;;;;;;8.77;6.43;;;;;;;;;;4996043;28;20451;-78
2022/07/25 09:44:44;;;;;;;9.30;6.37;;;;;;;;;;4997798;28;20477;-78
2022/07/25 09:47:12;;;;;;;5.83;5.40;;;;;;;;;;4993994;28;20466;-79
2022/07/25 09:49:40;;;;;;;7.30;6.60;;;;;;;;;;4974340;28;20444;-77
2022/07/25 09:52:08;;;;;;;8.70;6.30;;;;;;;;;;4992104;28;20432;-80
2022/07/25 09:54:36;;;;;;;7.17;6.57;;;;;;;;;;4991919;28;20828;-76
2022/07/25 09:57:04;;;;;;;6.10;5.60;;;;;;;;;;4992166;28;20474;-77
2022/07/25 09:59:31;;;;;;;6.63;6.10;;;;;;;;;;5009463;28;20462;-78
2022/07/25 10:02:01;;;;;;;7.83;7.03;;;;;;;;;;4996544;28;20529;-78
2022/07/25 10:04:36;;;;;;;6.93;6.20;;;;;;;;;;4990324;28;20490;-80
2022/07/25 10:07:04;;;;;;;7.40;6.63;;;;;;;;;;4996107;28;20562;-80
2022/07/25 10:09:31;;;;;;;7.70;6.90;;;;;;;;;;4976488;28;20436;-79
2022/07/25 10:12:08;;;;;;;8.20;6.50;;;;;;;;;;4991430;28;20466;-77
2022/07/25 10:14:35;;;;;;;13.80;6.63;;;;;;;;;;4974502;28;20453;-76
2022/07/25 10:17:03;;;;;;;9.47;6.10;;;;;;;;;;4990299;28;20462;-77
2022/07/25 10:19:41;;;;;;;7.20;6.10;;;;;;;;;;4991840;28;20519;-78
2022/07/25 10:22:09;;;;;;;7.97;6.10;;;;;;;;;;4978077;28;20473;-78
2022/07/25 10:24:37;;;;;;;7.70;6.83;;;;;;;;;;4997283;28;20501;-79
2022/07/25 10:27:10;;;;;;;8.60;6.77;;;;;;;;;;4993641;28;20495;-78
2022/07/25 10:29:38;;;;;;;7.67;6.97;;;;;;;;;;4974684;28;20524;-77
2022/07/25 10:32:06;;;;;;;7.17;6.47;;;;;;;;;;4991559;28;20446;-78
2022/07/25 10:34:35;;;;;;;9.90;6.73;;;;;;;;;;4974151;28;20539;-78
2022/07/25 10:37:10;;;;;;;7.53;6.90;;;;;;;;;;4991462;28;20466;-77
2022/07/25 10:39:38;;;;;;;7.40;6.50;;;;;;;;;;5011448;28;20526;-77
2022/07/25 10:42:06;;;;;;;9.10;6.50;;;;;;;;;;4995844;28;20446;-77
2022/07/25 10:44:42;;;;;;;7.50;5.77;;;;;;;;;;4989192;28;20485;-77
2022/07/25 10:47:10;;;;;;;6.53;6.03;;;;;;;;;;4996927;28;20461;-77
2022/07/25 10:49:38;;;;;;;8.00;6.80;;;;;;;;;;4993722;28;20817;-77
2022/07/25 10:52:05;;;;;;;6.37;5.77;;;;;;;;;;4974487;28;20439;-78
2022/07/25 10:54:34;;;;;;;6.80;6.20;;;;;;;;;;4991266;28;20458;-77
2022/07/25 10:57:01;;;;;;;7.97;6.00;;;;;;;;;;4973953;28;20460;-77
2022/07/25 10:59:30;;;;;;;8.00;6.07;;;;;;;;;;4974706;28;20466;-82
2022/07/25 11:01:58;;;;;;;6.00;5.40;;;;;;;;;;4996019;28;20518;-77
2022/07/25 11:04:26;;;;;;;7.40;6.60;;;;;;;;;;4980316;28;20494;-78
2022/07/25 11:06:53;;;;;;;6.87;5.77;;;;;;;;;;4996477;28;20891;-77
2022/07/25 11:09:22;;;;;;;6.07;5.47;;;;;;;;;;4991934;28;20979;-76
2022/07/25 11:11:50;;;;;;;6.37;5.60;;;;;;;;;;5003516;28;20439;-76
2022/07/25 11:14:18;;;;;;;7.73;5.50;;;;;;;;;;5013917;28;20538;-76
2022/07/25 11:16:46;;;;;;;6.63;5.93;;;;;;;;;;4996485;28;20463;-75
2022/07/25 11:19:19;;;;;;;6.40;5.80;;;;;;;;;;4996661;28;20442;-76
2022/07/25 11:21:46;;;;;;;9.83;6.33;;;;;;;;;;5014890;28;20445;-76
2022/07/25 11:24:14;;;;;;;6.00;5.40;;;;;;;;;;4997167;28;20521;-76
2022/07/25 11:26:49;;;;;;;7.10;5.93;;;;;;;;;;5016098;28;20555;-76
2022/07/25 11:29:20;;;;;;;5.43;4.93;;;;;;;;;;5014227;28;20537;-76
2022/07/25 11:31:52;;;;;;;9.60;5.33;;;;;;;;;;5000264;28;20443;-76
2022/07/25 11:34:23;;;;;;;6.80;5.30;;;;;;;;;;5003464;28;20445;-76
2022/07/25 11:36:50;;;;;;;5.10;4.60;;;;;;;;;;4996227;28;20959;-77
2022/07/25 11:39:18;;;;;;;8.07;5.50;;;;;;;;;;5013672;28;20915;-76
2022/07/25 11:41:45;;;;;;;5.80;5.30;;;;;;;;;;5013274;28;20446;-79
2022/07/25 11:44:13;;;;;;;6.80;5.43;;;;;;;;;;5014216;28;20483;-77
2022/07/25 11:46:43;;;;;;;5.40;4.30;;;;;;;;;;5013950;28;21051;-76
2022/07/25 11:49:11;;;;;;;8.73;5.40;;;;;;;;;;5015780;28;20803;-78
2022/07/25 11:51:40;;;;;;;5.40;4.70;;;;;;;;;;5015643;28;20461;-75
2022/07/25 11:54:09;;;;;;;6.03;4.83;;;;;;;;;;4982691;28;20434;-76
2022/07/25 11:56:38;;;;;;;5.33;4.83;;;;;;;;;;5000208;28;20491;-78
2022/07/25 11:59:05;;;;;;;5.77;4.30;;;;;;;;;;4995209;28;20482;-76
2022/07/25 12:01:34;;;;;;;5.27;4.60;;;;;;;;;;5013064;28;20454;-76
2022/07/25 12:04:09;;;;;;;5.60;4.03;;;;;;;;;;5012633;28;20478;-78
2022/07/25 12:06:37;;;;;;;5.77;4.70;;;;;;;;;;5013398;28;20826;-77
2022/07/25 12:09:12;;;;;;;4.80;4.30;;;;;;;;;;5013646;28;20451;-77
2022/07/25 12:11:40;;;;;;;5.13;4.57;;;;;;;;;;4997855;28;21038;-78
2022/07/25 12:14:07;;;;;;;4.40;4.00;;;;;;;;;;5015502;28;20523;-78
2022/07/25 12:16:35;;;;;;;5.13;4.33;;;;;;;;;;5000534;28;20500;-75
2022/07/25 12:19:02;;;;;;;4.97;4.10;;;;;;;;;;4981526;28;20436;-78
2022/07/25 12:21:29;;;;;;;5.93;4.13;;;;;;;;;;5012434;28;20449;-79
2022/07/25 12:23:58;;;;;;;7.17;4.10;;;;;;;;;;5012698;28;20994;-76
2022/07/25 12:26:26;;;;;;;7.03;4.40;;;;;;;;;;5012186;28;20479;-76
2022/07/25 12:28:53;;;;;;;5.13;4.63;;;;;;;;;;5013362;28;20437;-76
2022/07/25 12:31:23;;;;;;;4.97;4.47;;;;;;;;;;5012676;28;20466;-77
2022/07/25 12:33:51;;;;;;;4.73;4.20;;;;;;;;;;5015201;28;20517;-76
2022/07/25 12:36:18;;;;;;;7.10;4.40;;;;;;;;;;5014863;28;20594;-77
2022/07/25 12:38:45;;;;;;;5.73;4.50;;;;;;;;;;5003818;28;20519;-78
2022/07/25 12:41:13;;;;;;;7.50;5.90;;;;;;;;;;4998766;28;20469;-77
2022/07/25 12:43:41;;;;;;;5.23;4.50;;;;;;;;;;4991923;28;20470;-77
2022/07/25 12:46:08;;;;;;;5.60;4.33;;;;;;;;;;4992397;28;20501;-77
2022/07/25 12:48:36;;;;;;;4.67;4.10;;;;;;;;;;4992998;28;20537;-78
2022/07/25 12:51:03;;;;;;;4.40;3.80;;;;;;;;;;4992868;28;20442;-76
2022/07/25 12:53:30;;;;;;;3.90;3.50;;;;;;;;;;4992651;28;20444;-80
2022/07/25 12:55:57;;;;;;;4.47;3.70;;;;;;;;;;4994688;28;21010;-80
2022/07/25 12:58:24;;;;;;;4.33;3.20;;;;;;;;;;4994760;28;20532;-78
2022/07/25 13:00:53;;;;;;;3.57;3.27;;;;;;;;;;4991985;28;20452;-77
2022/07/25 13:03:20;;;;;;;4.90;3.63;;;;;;;;;;4998410;28;20535;-77
2022/07/25 13:05:48;;;;;;;6.10;3.90;;;;;;;;;;5005264;28;20525;-75
2022/07/25 13:08:15;;;;;;;4.27;3.87;;;;;;;;;;5012155;28;20529;-77
2022/07/25 13:10:42;;;;;;;3.93;3.53;;;;;;;;;;5011978;28;20529;-77
2022/07/25 13:13:09;;;;;;;5.00;4.00;;;;;;;;;;5011588;28;20637;-80
2022/07/25 13:15:37;;;;;;;5.30;4.07;;;;;;;;;;5012471;28;20475;-77
2022/07/25 13:18:06;;;;;;;6.00;3.30;;;;;;;;;;5013039;28;20529;-79
2022/07/25 13:20:34;;;;;;;4.07;3.30;;;;;;;;;;5014299;28;20522;-75
2022/07/25 13:23:02;;;;;;;4.90;3.70;;;;;;;;;;5011495;28;20439;-77
2022/07/25 13:25:30;;;;;;;4.93;3.40;;;;;;;;;;4997767;28;20511;-77
2022/07/25 13:27:57;;;;;;;5.97;3.57;;;;;;;;;;4996333;28;20506;-79
2022/07/25 13:30:24;;;;;;;3.50;2.80;;;;;;;;;;4992134;28;20452;-76
2022/07/25 13:32:51;;;;;;;4.30;2.87;;;;;;;;;;4992054;28;20566;-80
2022/07/25 13:35:20;;;;;;;6.07;3.70;;;;;;;;;;4991699;28;20865;-78
2022/07/25 13:37:47;;;;;;;5.50;3.50;;;;;;;;;;4992444;28;20460;-81
2022/07/25 13:40:14;;;;;;;6.00;2.90;;;;;;;;;;5002120;28;20478;-78
2022/07/25 13:42:42;;;;;;;4.10;2.87;;;;;;;;;;5014069;28;20449;-78
2022/07/25 13:45:09;;;;;;;7.50;3.23;;;;;;;;;;5013916;28;20490;-78
2022/07/25 13:47:36;;;;;;;5.10;2.80;;;;;;;;;;5000204;28;20964;-79
2022/07/25 13:50:04;;;;;;;3.23;2.70;;;;;;;;;;4997891;28;20438;-78
2022/07/25 13:52:33;;;;;;;2.90;2.20;;;;;;;;;;5010072;28;20941;-78
2022/07/25 13:55:00;;;;;;;3.47;2.70;;;;;;;;;;5011092;28;20458;-78
2022/07/25 13:57:27;;;;;;;4.67;2.87;;;;;;;;;;5011458;28;20463;-78
2022/07/25 13:59:55;;;;;;;4.87;2.60;;;;;;;;;;5011330;28;20514;-78
2022/07/25 14:02:22;;;;;;;4.43;2.53;;;;;;;;;;5011250;28;20904;-78
2022/07/25 14:04:49;;;;;;;4.93;2.30;;;;;;;;;;5013458;28;20888;-78
2022/07/25 14:07:16;;;;;;;5.13;2.80;;;;;;;;;;5013369;28;20904;-78
2022/07/25 14:09:45;;;;;;;2.83;2.53;;;;;;;;;;5003267;28;20529;-79
2022/07/25 14:12:12;;;;;;;5.63;2.73;;;;;;;;;;4997482;28;20547;-80
2022/07/25 14:14:39;;;;;;;6.20;2.47;;;;;;;;;;4993826;28;20447;-79
2022/07/25 14:17:07;;;;;;;5.30;2.63;;;;;;;;;;4992285;28;20463;-78
2022/07/25 14:19:34;;;;;;;3.47;2.23;;;;;;;;;;4991695;28;20451;-78
2022/07/25 14:22:01;;;;;;;3.90;2.80;;;;;;;;;;4991586;28;20899;-80
2022/07/25 14:24:28;;;;;;;5.57;2.97;;;;;;;;;;4991820;28;20925;-79
2022/07/25 14:26:57;;;;;;;7.60;3.10;;;;;;;;;;5012052;28;20830;-79
2022/07/25 14:29:24;;;;;;;7.13;2.83;;;;;;;;;;5013475;28;20461;-79
2022/07/25 14:31:51;;;;;;;4.27;2.47;;;;;;;;;;5005757;28;20448;-80
2022/07/25 14:34:18;;;;;;;2.63;2.43;;;;;;;;;;4997316;28;20427;-77
2022/07/25 14:36:46;;;;;;;4.97;3.00;;;;;;;;;;5008493;28;20554;-81
2022/07/25 14:39:13;;;;;;;3.80;3.20;;;;;;;;;;4994732;28;20463;-77
2022/07/25 14:41:41;;;;;;;5.13;2.80;;;;;;;;;;4995230;28;20546;-77
2022/07/25 14:44:09;;;;;;;4.40;2.37;;;;;;;;;;4994753;28;20444;-79
2022/07/25 14:46:36;;;;;;;6.20;2.70;;;;;;;;;;4995269;28;21177;-79
2022/07/25 14:49:04;;;;;;;4.83;2.57;;;;;;;;;;5002310;28;21088;-79